createdAt,value
2018-11-29T00:01:46.384Z,0.60
2018-11-29T00:02:46.375Z,1.10
2018-11-29T00:03:46.325Z,1.50
2018-11-29T00:04:46.294Z,1.80
2018-11-29T00:05:46.276Z,1.30
2018-11-29T00:06:46.253Z,1.50
2018-11-29T00:07:46.208Z,2.10
2018-11-29T00:08:46.190Z,2.30
2018-11-29T00:09:46.145Z,2.20
2018-11-29T00:10:46.110Z,1.80
2018-11-29T00:11:46.084Z,1.30
2018-11-29T00:12:46.056Z,1.40
2018-11-29T00:13:46.025Z,1.70
2018-11-29T00:14:45.994Z,1.60
2018-11-29T00:15:45.993Z,1.60
2018-11-29T00:16:45.928Z,1.60
2018-11-29T00:17:45.960Z,1.70
2018-11-29T00:18:45.865Z,1.60
2018-11-29T00:19:45.859Z,1.40
2018-11-29T00:20:45.794Z,1.60
2018-11-29T00:21:45.799Z,1.80
2018-11-29T00:22:45.780Z,1.30
2018-11-29T00:23:45.779Z,1.40
2018-11-29T00:24:45.709Z,1.70
2018-11-29T00:25:45.654Z,1.50
2018-11-29T00:27:45.590Z,1.10
2018-11-29T00:28:45.544Z,1.70
2018-11-29T00:29:45.514Z,1.40
2018-11-29T00:30:45.478Z,1.30
2018-11-29T00:31:45.860Z,1.20
2018-11-29T00:32:45.432Z,1.50
2018-11-29T00:33:45.377Z,1.40
2018-11-29T00:34:45.364Z,1.40
2018-11-29T00:35:45.311Z,1.30
2018-11-29T00:36:45.293Z,1.40
2018-11-29T00:37:45.265Z,1.50
2018-11-29T00:38:45.225Z,1.30
2018-11-29T00:39:45.214Z,1.40
2018-11-29T00:40:45.159Z,1.70
2018-11-29T00:41:45.135Z,1.30
2018-11-29T00:42:45.087Z,1.40
2018-11-29T00:43:45.080Z,1.30
2018-11-29T00:44:45.053Z,1.20
2018-11-29T00:45:45.034Z,1.30
2018-11-29T00:46:45.076Z,1.30
2018-11-29T00:47:45.138Z,1.60
2018-11-29T00:48:44.919Z,1.20
2018-11-29T00:49:44.906Z,1.80
2018-11-29T00:50:44.844Z,1.40
2018-11-29T00:51:44.808Z,1.30
2018-11-29T00:52:44.801Z,1.70
2018-11-29T00:53:44.754Z,1.30
2018-11-29T00:54:44.721Z,1.20
2018-11-29T00:55:44.687Z,1.70
2018-11-29T00:56:44.755Z,1.30
2018-11-29T00:57:44.648Z,1.60
2018-11-29T00:58:44.591Z,1.30
2018-11-29T00:59:44.556Z,1.80
2018-11-29T01:00:44.528Z,1.80
2018-11-29T01:01:44.515Z,1.80
2018-11-29T01:02:44.466Z,1.60
2018-11-29T01:03:44.457Z,1.80
2018-11-29T01:04:44.683Z,1.80
2018-11-29T01:05:44.359Z,1.70
2018-11-29T01:06:44.333Z,1.20
2018-11-29T01:07:44.311Z,1.60
2018-11-29T01:08:44.293Z,1.70
2018-11-29T01:09:44.229Z,1.60
2018-11-29T01:10:44.206Z,1.30
2018-11-29T01:11:44.205Z,1.70
2018-11-29T01:12:44.133Z,1.60
2018-11-29T01:13:44.149Z,1.30
2018-11-29T01:14:44.287Z,1.50
2018-11-29T01:15:44.243Z,1.40
2018-11-29T01:16:44.389Z,1.60
2018-11-29T01:17:44.085Z,2.00
2018-11-29T01:18:43.959Z,1.30
2018-11-29T01:19:43.932Z,1.60
2018-11-29T01:20:44.283Z,1.70
2018-11-29T01:21:43.891Z,1.50
2018-11-29T01:22:43.851Z,1.50
2018-11-29T01:23:43.787Z,1.20
2018-11-29T01:24:43.758Z,1.40
2018-11-29T01:25:43.746Z,1.60
2018-11-29T01:26:44.172Z,1.60
2018-11-29T01:27:43.665Z,1.90
2018-11-29T01:28:43.665Z,1.60
2018-11-29T01:29:43.590Z,1.50
2018-11-29T01:30:43.568Z,1.40
2018-11-29T01:31:43.544Z,1.40
2018-11-29T01:32:43.511Z,1.70
2018-11-29T01:33:43.476Z,1.60
2018-11-29T01:34:43.437Z,1.40
2018-11-29T01:35:43.432Z,1.30
2018-11-29T01:36:43.384Z,1.90
2018-11-29T01:37:43.343Z,1.40
2018-11-29T01:38:43.317Z,1.50
2018-11-29T01:39:43.292Z,1.10
2018-11-29T01:40:43.253Z,1.80
2018-11-29T01:41:43.217Z,1.70
2018-11-29T01:42:43.178Z,1.70
2018-11-29T01:43:43.182Z,1.10
2018-11-29T01:44:43.439Z,1.40
2018-11-29T01:45:43.091Z,1.60
2018-11-29T01:46:43.096Z,1.40
2018-11-29T01:47:43.219Z,1.40
2018-11-29T01:48:42.986Z,1.30
2018-11-29T01:49:42.974Z,1.60
2018-11-29T01:50:42.928Z,1.40
2018-11-29T01:51:42.886Z,1.40
2018-11-29T01:52:42.865Z,1.40
2018-11-29T01:53:42.827Z,1.70
2018-11-29T01:54:42.787Z,1.40
2018-11-29T01:55:42.770Z,1.10
2018-11-29T01:56:42.727Z,1.80
2018-11-29T01:57:42.690Z,1.50
2018-11-29T01:58:42.663Z,1.80
2018-11-29T01:59:42.704Z,1.50
2018-11-29T02:00:42.597Z,1.40
2018-11-29T02:01:42.575Z,1.90
2018-11-29T02:02:42.554Z,1.50
2018-11-29T02:03:42.516Z,1.80
2018-11-29T02:04:42.665Z,1.40
2018-11-29T02:05:42.433Z,1.60
2018-11-29T02:06:42.430Z,1.70
2018-11-29T02:07:42.370Z,1.50
2018-11-29T02:08:42.339Z,1.60
2018-11-29T02:09:42.304Z,2.00
2018-11-29T02:10:42.273Z,1.80
2018-11-29T02:11:42.278Z,1.40
2018-11-29T02:12:42.225Z,1.70
2018-11-29T02:13:42.182Z,1.90
2018-11-29T02:14:42.152Z,1.60
2018-11-29T02:15:42.544Z,1.50
2018-11-29T02:16:42.099Z,1.50
2018-11-29T02:17:42.059Z,2.00
2018-11-29T02:18:42.030Z,1.80
2018-11-29T02:19:42.005Z,1.50
2018-11-29T02:20:41.966Z,1.90
2018-11-29T02:21:41.923Z,1.90
2018-11-29T02:22:41.921Z,1.80
2018-11-29T02:23:41.858Z,2.00
2018-11-29T02:24:41.834Z,1.50
2018-11-29T02:25:41.815Z,1.80
2018-11-29T02:26:41.785Z,1.80
2018-11-29T02:27:41.794Z,2.00
2018-11-29T02:28:41.751Z,1.50
2018-11-29T02:29:41.698Z,1.60
2018-11-29T02:30:41.639Z,1.60
2018-11-29T02:31:41.598Z,1.60
2018-11-29T02:32:41.770Z,1.40
2018-11-29T02:33:41.548Z,1.40
2018-11-29T02:34:41.527Z,1.60
2018-11-29T02:35:41.480Z,1.70
2018-11-29T02:36:41.468Z,1.40
2018-11-29T02:37:41.425Z,1.70
2018-11-29T02:38:41.381Z,1.70
2018-11-29T02:39:41.347Z,1.50
2018-11-29T02:40:41.313Z,1.70
2018-11-29T02:41:41.295Z,1.70
2018-11-29T02:42:41.253Z,1.50
2018-11-29T02:43:41.225Z,1.90
2018-11-29T02:44:41.263Z,1.60
2018-11-29T02:45:41.164Z,1.40
2018-11-29T02:46:41.121Z,1.50
2018-11-29T02:47:41.082Z,1.80
2018-11-29T02:48:41.055Z,1.80
2018-11-29T02:49:41.020Z,1.20
2018-11-29T02:50:41.000Z,1.70
2018-11-29T02:51:40.966Z,1.70
2018-11-29T02:52:40.922Z,1.70
2018-11-29T02:53:40.911Z,1.60
2018-11-29T02:54:40.882Z,1.40
2018-11-29T02:55:40.824Z,1.80
2018-11-29T02:56:40.811Z,1.70
2018-11-29T02:57:40.768Z,1.70
2018-11-29T02:58:40.730Z,1.70
2018-11-29T02:59:40.718Z,1.60
2018-11-29T03:00:40.657Z,1.60
2018-11-29T03:01:40.627Z,2.30
2018-11-29T03:02:40.611Z,1.40
2018-11-29T03:03:40.569Z,1.60
2018-11-29T03:04:40.577Z,1.60
2018-11-29T03:05:40.498Z,1.50
2018-11-29T03:06:40.476Z,1.60
2018-11-29T03:07:40.434Z,1.60
2018-11-29T03:08:40.424Z,1.50
2018-11-29T03:09:40.374Z,1.70
2018-11-29T03:10:40.380Z,1.90
2018-11-29T03:11:40.308Z,1.40
2018-11-29T03:12:40.280Z,1.70
2018-11-29T03:13:40.244Z,1.50
2018-11-29T03:14:40.220Z,1.60
2018-11-29T03:15:40.177Z,1.70
2018-11-29T03:16:40.163Z,1.40
2018-11-29T03:17:40.129Z,1.90
2018-11-29T03:18:40.097Z,1.60
2018-11-29T03:19:40.044Z,1.60
2018-11-29T03:20:40.226Z,1.60
2018-11-29T03:21:39.985Z,1.60
2018-11-29T03:22:39.974Z,2.00
2018-11-29T03:23:39.917Z,1.90
2018-11-29T03:24:39.900Z,1.60
2018-11-29T03:25:39.886Z,1.60
2018-11-29T03:26:39.844Z,1.60
2018-11-29T03:27:39.793Z,1.60
2018-11-29T03:28:39.757Z,1.20
2018-11-29T03:29:39.739Z,1.60
2018-11-29T03:30:39.705Z,1.50
2018-11-29T03:31:39.654Z,2.10
2018-11-29T03:32:39.654Z,1.90
2018-11-29T03:33:39.602Z,1.80
2018-11-29T03:34:39.580Z,1.90
2018-11-29T03:35:44.325Z,1.90
2018-11-29T03:36:39.492Z,1.90
2018-11-29T03:37:39.476Z,1.40
2018-11-29T03:38:39.427Z,2.10
2018-11-29T03:39:39.395Z,1.80
2018-11-29T03:40:39.357Z,1.60
2018-11-29T03:41:39.328Z,1.50
2018-11-29T03:42:39.296Z,1.60
2018-11-29T03:43:39.260Z,1.60
2018-11-29T03:44:39.244Z,2.00
2018-11-29T03:45:39.206Z,1.50
2018-11-29T03:46:39.178Z,1.50
2018-11-29T03:47:39.142Z,1.70
2018-11-29T03:48:39.100Z,1.90
2018-11-29T03:49:39.083Z,1.50
2018-11-29T03:50:39.092Z,2.10
2018-11-29T03:51:39.008Z,2.90
2018-11-29T03:52:38.994Z,1.80
2018-11-29T03:53:38.958Z,1.80
2018-11-29T03:54:38.908Z,1.90
2018-11-29T03:55:38.876Z,1.90
2018-11-29T03:56:38.861Z,1.90
2018-11-29T03:57:38.880Z,1.90
2018-11-29T03:58:38.781Z,1.60
2018-11-29T03:59:38.759Z,1.60
2018-11-29T04:00:38.714Z,1.70
2018-11-29T04:01:38.686Z,2.00
2018-11-29T04:02:38.645Z,2.10
2018-11-29T04:03:38.614Z,1.80
2018-11-29T04:04:38.574Z,1.60
2018-11-29T04:05:38.548Z,2.00
2018-11-29T04:06:38.512Z,2.10
2018-11-29T04:07:38.489Z,1.70
2018-11-29T04:08:38.448Z,1.50
2018-11-29T04:09:38.420Z,1.80
2018-11-29T04:10:38.392Z,2.00
2018-11-29T04:11:38.362Z,2.40
2018-11-29T04:12:38.328Z,1.60
2018-11-29T04:13:38.293Z,1.60
2018-11-29T04:14:38.253Z,2.10
2018-11-29T04:15:38.215Z,1.60
2018-11-29T04:16:38.184Z,1.90
2018-11-29T04:17:41.006Z,1.60
2018-11-29T04:18:38.523Z,1.80
2018-11-29T04:19:38.098Z,1.60
2018-11-29T04:20:38.052Z,1.60
2018-11-29T04:21:38.036Z,1.60
2018-11-29T04:22:37.996Z,1.80
2018-11-29T04:23:37.965Z,1.80
2018-11-29T04:24:37.935Z,2.00
2018-11-29T04:25:37.913Z,1.70
2018-11-29T04:26:37.862Z,1.70
2018-11-29T04:27:37.852Z,2.00
2018-11-29T04:28:37.800Z,1.80
2018-11-29T04:29:37.758Z,1.80
2018-11-29T04:30:37.746Z,1.90
2018-11-29T04:31:37.699Z,1.80
2018-11-29T04:32:37.665Z,1.70
2018-11-29T04:33:37.627Z,1.90
2018-11-29T04:34:37.617Z,1.80
2018-11-29T04:35:37.561Z,1.70
2018-11-29T04:36:37.546Z,2.00
2018-11-29T04:37:37.518Z,1.70
2018-11-29T04:38:37.468Z,1.70
2018-11-29T04:39:37.431Z,1.60
2018-11-29T04:40:37.419Z,1.60
2018-11-29T04:41:37.380Z,2.20
2018-11-29T04:42:37.342Z,1.90
2018-11-29T04:43:37.319Z,2.20
2018-11-29T04:44:37.281Z,1.60
2018-11-29T04:45:37.288Z,1.80
2018-11-29T04:46:37.281Z,1.60
2018-11-29T04:47:37.176Z,2.20
2018-11-29T04:48:37.135Z,1.90
2018-11-29T04:49:37.107Z,2.00
2018-11-29T04:50:37.069Z,1.50
2018-11-29T04:51:37.045Z,1.80
2018-11-29T04:52:37.010Z,2.10
2018-11-29T04:53:36.981Z,1.70
2018-11-29T04:54:36.950Z,1.80
2018-11-29T04:55:36.915Z,1.90
2018-11-29T04:56:36.880Z,2.30
2018-11-29T04:57:36.843Z,1.70
2018-11-29T04:58:36.821Z,1.50
2018-11-29T04:59:36.803Z,1.80
2018-11-29T05:00:36.774Z,2.10
2018-11-29T05:01:36.720Z,1.60
2018-11-29T05:02:36.689Z,1.60
2018-11-29T05:03:36.656Z,1.40
2018-11-29T05:04:36.607Z,1.60
2018-11-29T05:05:36.585Z,2.10
2018-11-29T05:06:36.982Z,2.10
2018-11-29T05:07:36.507Z,2.10
2018-11-29T05:08:36.499Z,1.50
2018-11-29T05:09:36.461Z,1.80
2018-11-29T05:10:36.417Z,2.00
2018-11-29T05:11:36.389Z,2.10
2018-11-29T05:12:36.349Z,1.70
2018-11-29T05:13:36.319Z,2.00
2018-11-29T05:14:37.498Z,2.60
2018-11-29T05:15:36.309Z,2.60
2018-11-29T05:16:36.228Z,1.90
2018-11-29T05:17:36.186Z,1.80
2018-11-29T05:18:36.165Z,1.90
2018-11-29T05:19:36.119Z,2.10
2018-11-29T05:20:36.110Z,2.10
2018-11-29T05:21:36.052Z,1.50
2018-11-29T05:22:36.011Z,1.90
2018-11-29T05:23:36.037Z,1.70
2018-11-29T05:24:35.965Z,1.90
2018-11-29T05:25:35.926Z,2.20
2018-11-29T05:26:35.894Z,2.00
2018-11-29T05:27:35.873Z,1.70
2018-11-29T05:28:35.815Z,2.20
2018-11-29T05:29:35.789Z,1.80
2018-11-29T05:30:35.767Z,2.10
2018-11-29T05:31:35.736Z,1.70
2018-11-29T05:32:35.689Z,1.50
2018-11-29T05:33:35.665Z,2.00
2018-11-29T05:34:35.628Z,2.00
2018-11-29T05:35:35.594Z,1.50
2018-11-29T05:36:35.551Z,2.00
2018-11-29T05:37:35.730Z,2.10
2018-11-29T05:38:35.727Z,1.80
2018-11-29T05:39:35.463Z,2.00
2018-11-29T05:40:35.432Z,1.50
2018-11-29T05:41:35.384Z,1.90
2018-11-29T05:42:35.360Z,1.70
2018-11-29T05:43:35.336Z,1.90
2018-11-29T05:44:35.291Z,1.50
2018-11-29T05:45:35.257Z,1.70
2018-11-29T05:46:35.228Z,1.70
2018-11-29T05:47:35.186Z,2.00
2018-11-29T05:48:35.200Z,1.80
2018-11-29T05:49:35.119Z,1.90
2018-11-29T05:50:35.131Z,1.50
2018-11-29T05:51:35.110Z,2.40
2018-11-29T05:52:35.078Z,1.90
2018-11-29T05:53:34.991Z,2.10
2018-11-29T05:54:34.957Z,1.60
2018-11-29T05:55:34.920Z,1.70
2018-11-29T05:56:34.892Z,2.10
2018-11-29T05:57:34.861Z,2.00
2018-11-29T05:58:34.830Z,2.00
2018-11-29T05:59:34.790Z,1.70
2018-11-29T06:00:34.770Z,1.80
2018-11-29T06:01:34.734Z,1.70
2018-11-29T06:02:34.701Z,1.80
2018-11-29T06:03:34.693Z,1.50
2018-11-29T06:04:34.723Z,2.10
2018-11-29T06:05:34.613Z,2.10
2018-11-29T06:06:34.551Z,1.80
2018-11-29T06:07:34.540Z,2.40
2018-11-29T06:08:34.490Z,2.30
2018-11-29T06:09:34.453Z,1.60
2018-11-29T06:10:34.421Z,1.90
2018-11-29T06:11:34.397Z,1.90
2018-11-29T06:12:34.373Z,1.70
2018-11-29T06:13:34.364Z,1.80
2018-11-29T06:14:34.308Z,1.60
2018-11-29T06:15:34.275Z,1.80
2018-11-29T06:16:34.229Z,1.70
2018-11-29T06:17:34.191Z,1.60
2018-11-29T06:18:34.166Z,1.60
2018-11-29T06:19:34.159Z,2.00
2018-11-29T06:20:34.128Z,1.80
2018-11-29T06:21:34.066Z,2.00
2018-11-29T06:22:34.053Z,1.50
2018-11-29T06:23:33.987Z,1.80
2018-11-29T06:24:33.968Z,2.10
2018-11-29T06:25:33.922Z,2.00
2018-11-29T06:26:33.908Z,1.90
2018-11-29T06:27:33.859Z,1.70
2018-11-29T06:28:33.836Z,2.10
2018-11-29T06:29:33.841Z,1.80
2018-11-29T06:30:33.771Z,1.70
2018-11-29T06:31:33.722Z,1.70
2018-11-29T06:32:33.693Z,1.70
2018-11-29T06:33:33.678Z,1.50
2018-11-29T06:34:33.634Z,1.60
2018-11-29T06:35:33.589Z,2.00
2018-11-29T06:36:33.603Z,1.90
2018-11-29T06:37:33.531Z,1.60
2018-11-29T06:38:33.517Z,1.80
2018-11-29T06:39:33.454Z,1.90
2018-11-29T06:40:33.444Z,2.00
2018-11-29T06:41:33.406Z,1.60
2018-11-29T06:42:33.358Z,1.70
2018-11-29T06:43:33.328Z,1.90
2018-11-29T06:44:33.317Z,1.50
2018-11-29T06:45:33.669Z,2.00
2018-11-29T06:46:33.232Z,1.90
2018-11-29T06:47:33.210Z,1.50
2018-11-29T06:48:33.163Z,2.00
2018-11-29T06:49:33.129Z,2.40
2018-11-29T06:50:33.097Z,1.90
2018-11-29T06:51:33.075Z,1.50
2018-11-29T06:52:33.022Z,1.70
2018-11-29T06:53:33.016Z,2.00
2018-11-29T06:54:32.996Z,1.80
2018-11-29T06:55:32.922Z,1.80
2018-11-29T06:56:32.917Z,1.50
2018-11-29T06:57:32.867Z,2.00
2018-11-29T06:58:32.825Z,1.80
2018-11-29T06:59:32.801Z,1.90
2018-11-29T07:00:32.771Z,1.80
2018-11-29T07:02:32.686Z,1.30
2018-11-29T07:03:32.659Z,2.10
2018-11-29T07:04:32.636Z,1.70
2018-11-29T07:05:32.606Z,1.40
2018-11-29T07:06:32.551Z,1.70
2018-11-29T07:07:32.724Z,1.70
2018-11-29T07:08:32.487Z,1.70
2018-11-29T07:09:32.456Z,1.90
2018-11-29T07:10:32.448Z,1.50
2018-11-29T07:11:32.391Z,1.90
2018-11-29T07:12:32.351Z,1.70
2018-11-29T07:13:32.320Z,1.90
2018-11-29T07:14:32.296Z,2.20
2018-11-29T07:15:32.270Z,2.10
2018-11-29T07:16:32.218Z,1.60
2018-11-29T07:17:32.222Z,1.70
2018-11-29T07:18:32.154Z,2.10
2018-11-29T07:19:32.138Z,2.20
2018-11-29T07:20:32.102Z,1.40
2018-11-29T07:21:32.059Z,1.80
2018-11-29T07:22:32.038Z,1.70
2018-11-29T07:23:31.992Z,2.10
2018-11-29T07:24:31.958Z,1.70
2018-11-29T07:25:31.949Z,1.40
2018-11-29T07:26:31.884Z,1.80
2018-11-29T07:27:31.883Z,1.80
2018-11-29T07:28:31.817Z,1.90
2018-11-29T07:30:31.750Z,0.90
2018-11-29T07:31:31.723Z,1.60
2018-11-29T07:32:31.696Z,1.90
2018-11-29T07:33:31.673Z,1.60
2018-11-29T07:34:31.628Z,1.50
2018-11-29T07:35:31.608Z,1.40
2018-11-29T07:36:31.556Z,1.60
2018-11-29T07:37:31.524Z,2.00
2018-11-29T07:38:31.500Z,2.10
2018-11-29T07:39:31.449Z,1.50
2018-11-29T07:40:31.415Z,1.70
2018-11-29T07:41:31.382Z,1.60
2018-11-29T07:42:31.360Z,1.80
2018-11-29T07:43:31.318Z,1.90
2018-11-29T07:44:31.289Z,1.80
2018-11-29T07:45:31.495Z,1.60
2018-11-29T07:46:31.233Z,1.50
2018-11-29T07:47:31.185Z,1.60
2018-11-29T07:48:31.160Z,1.50
2018-11-29T07:49:31.113Z,1.90
2018-11-29T07:50:31.096Z,1.70
2018-11-29T07:51:31.264Z,1.80
2018-11-29T07:52:31.054Z,2.00
2018-11-29T07:53:30.992Z,1.90
2018-11-29T07:54:30.939Z,1.70
2018-11-29T07:55:30.913Z,1.50
2018-11-29T07:56:30.875Z,2.20
2018-11-29T07:57:30.854Z,2.10
2018-11-29T07:58:30.833Z,1.60
2018-11-29T07:59:30.791Z,1.70
2018-11-29T08:00:30.743Z,1.60
2018-11-29T08:01:30.715Z,1.70
2018-11-29T08:02:30.699Z,1.80
2018-11-29T08:03:30.645Z,1.80
2018-11-29T08:04:30.630Z,1.80
2018-11-29T08:05:30.579Z,1.70
2018-11-29T08:06:30.543Z,2.10
2018-11-29T08:07:30.508Z,1.80
2018-11-29T08:08:30.469Z,1.50
2018-11-29T08:09:30.446Z,1.90
2018-11-29T08:10:31.007Z,2.60
2018-11-29T08:11:30.382Z,1.70
2018-11-29T08:12:30.400Z,1.70
2018-11-29T08:13:30.311Z,1.60
2018-11-29T08:14:30.282Z,1.70
2018-11-29T08:15:30.241Z,2.10
2018-11-29T08:16:30.207Z,1.50
2018-11-29T08:17:30.392Z,1.80
2018-11-29T08:18:30.137Z,1.90
2018-11-29T08:19:30.150Z,1.40
2018-11-29T08:20:30.064Z,1.80
2018-11-29T08:21:30.038Z,1.70
2018-11-29T08:22:29.997Z,1.90
2018-11-29T08:23:30.027Z,1.40
2018-11-29T08:24:29.976Z,1.80
2018-11-29T08:25:29.923Z,1.70
2018-11-29T08:26:29.865Z,1.60
2018-11-29T08:27:29.839Z,1.90
2018-11-29T08:28:29.795Z,1.70
2018-11-29T08:29:35.000Z,1.50
2018-11-29T08:30:29.748Z,1.50
2018-11-29T08:31:29.699Z,1.90
2018-11-29T08:32:29.701Z,1.60
2018-11-29T08:33:29.638Z,1.70
2018-11-29T08:34:29.652Z,1.50
2018-11-29T08:35:29.567Z,1.90
2018-11-29T08:36:29.526Z,2.10
2018-11-29T08:37:29.503Z,2.20
2018-11-29T08:38:29.480Z,1.80
2018-11-29T08:39:29.445Z,1.50
2018-11-29T08:40:29.400Z,1.50
2018-11-29T08:41:29.376Z,1.90
2018-11-29T08:42:29.330Z,1.90
2018-11-29T08:43:29.323Z,1.70
2018-11-29T08:44:29.261Z,1.50
2018-11-29T08:45:29.341Z,2.20
2018-11-29T08:46:29.207Z,1.60
2018-11-29T08:47:29.172Z,1.70
2018-11-29T08:48:29.140Z,1.60
2018-11-29T08:49:29.115Z,1.60
2018-11-29T08:50:29.067Z,1.80
2018-11-29T08:51:29.023Z,2.10
2018-11-29T08:52:29.010Z,2.00
2018-11-29T08:53:28.959Z,1.50
2018-11-29T08:54:28.928Z,1.80
2018-11-29T08:55:28.892Z,1.70
2018-11-29T08:56:28.853Z,2.00
2018-11-29T08:57:28.827Z,2.10
2018-11-29T08:58:28.783Z,1.90
2018-11-29T08:59:28.767Z,1.70
2018-11-29T09:00:28.717Z,2.00
2018-11-29T09:01:28.689Z,2.00
2018-11-29T09:02:28.660Z,1.80
2018-11-29T09:03:28.615Z,1.70
2018-11-29T09:04:28.603Z,1.60
2018-11-29T09:05:33.813Z,1.90
2018-11-29T09:06:28.636Z,1.90
2018-11-29T09:07:28.497Z,1.70
2018-11-29T09:08:28.454Z,1.60
2018-11-29T09:09:28.443Z,1.70
2018-11-29T09:10:31.519Z,2.00
2018-11-29T09:11:28.558Z,1.50
2018-11-29T09:12:28.322Z,1.80
2018-11-29T09:13:28.310Z,1.60
2018-11-29T09:14:28.297Z,1.50
2018-11-29T09:15:28.211Z,1.90
2018-11-29T09:16:28.177Z,2.00
2018-11-29T09:17:28.360Z,2.20
2018-11-29T09:18:28.123Z,1.80
2018-11-29T09:19:28.080Z,1.80
2018-11-29T09:20:28.077Z,1.80
2018-11-29T09:21:28.021Z,1.50
2018-11-29T09:22:27.993Z,2.10
2018-11-29T09:23:27.953Z,1.90
2018-11-29T09:24:27.920Z,1.40
2018-11-29T09:25:27.874Z,2.00
2018-11-29T09:26:27.842Z,1.90
2018-11-29T09:27:27.821Z,2.10
2018-11-29T09:28:27.776Z,2.40
2018-11-29T09:29:27.755Z,2.00
2018-11-29T09:30:27.733Z,2.00
2018-11-29T09:31:27.687Z,1.90
2018-11-29T09:32:27.696Z,1.20
2018-11-29T09:33:27.612Z,1.80
2018-11-29T09:34:27.596Z,1.90
2018-11-29T09:35:27.556Z,1.60
2018-11-29T09:36:27.531Z,1.80
2018-11-29T09:37:27.476Z,1.50
2018-11-29T09:38:27.445Z,1.80
2018-11-29T09:39:27.411Z,2.30
2018-11-29T09:40:27.382Z,3.60
2018-11-29T09:41:27.355Z,3.30
2018-11-29T09:42:27.310Z,4.10
2018-11-29T09:43:27.277Z,5.10
2018-11-29T09:44:27.485Z,4.80
2018-11-29T09:45:27.221Z,3.70
2018-11-29T09:46:27.195Z,3.80
2018-11-29T09:47:27.161Z,2.70
2018-11-29T09:48:28.425Z,3.60
2018-11-29T09:49:27.101Z,3.10
2018-11-29T09:50:27.277Z,3.70
2018-11-29T09:51:27.025Z,3.60
2018-11-29T09:52:26.982Z,3.80
2018-11-29T09:53:26.958Z,4.30
2018-11-29T09:54:26.929Z,3.30
2018-11-29T09:55:26.884Z,3.10
2018-11-29T09:56:26.859Z,2.80
2018-11-29T09:57:26.827Z,2.80
2018-11-29T09:58:26.783Z,2.10
2018-11-29T09:59:26.753Z,2.20
2018-11-29T10:00:28.193Z,1.90
2018-11-29T10:01:26.689Z,2.00
2018-11-29T10:02:26.651Z,2.60
2018-11-29T10:03:26.633Z,2.30
2018-11-29T10:04:26.591Z,1.80
2018-11-29T10:05:26.557Z,1.90
2018-11-29T10:06:26.600Z,2.10
2018-11-29T10:07:26.492Z,1.70
2018-11-29T10:08:26.462Z,2.30
2018-11-29T10:09:26.426Z,1.80
2018-11-29T10:10:26.408Z,1.70
2018-11-29T10:11:26.378Z,1.90
2018-11-29T10:12:26.338Z,2.10
2018-11-29T10:13:26.299Z,2.00
2018-11-29T10:14:26.278Z,1.70
2018-11-29T10:15:26.291Z,1.80
2018-11-29T10:16:26.205Z,1.80
2018-11-29T10:17:26.166Z,1.70
2018-11-29T10:18:26.136Z,1.90
2018-11-29T10:19:26.103Z,2.80
2018-11-29T10:20:26.068Z,2.80
2018-11-29T10:21:26.061Z,3.50
2018-11-29T10:22:26.013Z,5.50
2018-11-29T10:23:25.983Z,6.20
2018-11-29T10:24:25.943Z,7.50
2018-11-29T10:25:25.939Z,9.50
2018-11-29T10:26:25.881Z,9.20
2018-11-29T10:27:25.857Z,6.90
2018-11-29T10:28:25.844Z,7.70
2018-11-29T10:29:25.791Z,6.00
2018-11-29T10:30:25.757Z,6.00
2018-11-29T10:31:25.712Z,4.40
2018-11-29T10:32:25.694Z,4.80
2018-11-29T10:33:25.677Z,4.50
2018-11-29T10:34:25.617Z,3.70
2018-11-29T10:35:25.673Z,3.60
2018-11-29T10:36:25.558Z,2.50
2018-11-29T10:37:25.556Z,2.70
2018-11-29T10:38:25.716Z,2.40
2018-11-29T10:39:25.476Z,3.10
2018-11-29T10:40:25.465Z,2.30
2018-11-29T10:41:25.409Z,2.20
2018-11-29T10:42:25.368Z,3.20
2018-11-29T10:43:25.334Z,2.60
2018-11-29T10:44:25.330Z,2.60
2018-11-29T10:45:25.322Z,2.70
2018-11-29T10:46:25.238Z,2.30
2018-11-29T10:47:25.230Z,2.10
2018-11-29T10:48:25.185Z,1.80
2018-11-29T10:49:25.151Z,1.90
2018-11-29T10:50:25.157Z,2.00
2018-11-29T10:51:25.086Z,1.80
2018-11-29T10:52:25.058Z,1.90
2018-11-29T10:53:25.035Z,2.20
2018-11-29T10:54:24.987Z,1.80
2018-11-29T10:55:24.965Z,1.70
2018-11-29T10:56:24.924Z,1.60
2018-11-29T10:57:24.899Z,1.70
2018-11-29T10:58:24.861Z,2.00
2018-11-29T10:59:24.846Z,1.40
2018-11-29T11:00:24.796Z,1.60
2018-11-29T11:01:24.790Z,2.00
2018-11-29T11:02:24.746Z,1.50
2018-11-29T11:03:24.760Z,1.30
2018-11-29T11:04:24.700Z,1.60
2018-11-29T11:05:24.653Z,1.90
2018-11-29T11:06:24.619Z,1.50
2018-11-29T11:07:24.602Z,1.50
2018-11-29T11:08:24.559Z,1.70
2018-11-29T11:09:24.533Z,1.70
2018-11-29T11:10:24.888Z,1.60
2018-11-29T11:11:24.461Z,1.60
2018-11-29T11:12:24.489Z,1.40
2018-11-29T11:13:24.402Z,1.30
2018-11-29T11:14:24.393Z,1.50
2018-11-29T11:15:24.334Z,2.20
2018-11-29T11:16:24.323Z,1.50
2018-11-29T11:17:24.287Z,1.60
2018-11-29T11:18:24.254Z,1.60
2018-11-29T11:19:24.206Z,1.50
2018-11-29T11:20:24.180Z,1.50
2018-11-29T11:21:24.224Z,1.20
2018-11-29T11:22:24.115Z,1.50
2018-11-29T11:23:24.092Z,2.00
2018-11-29T11:24:24.072Z,1.70
2018-11-29T11:25:24.030Z,1.30
2018-11-29T11:26:24.001Z,1.60
2018-11-29T11:27:23.978Z,1.80
2018-11-29T11:28:23.946Z,1.40
2018-11-29T11:29:23.913Z,1.60
2018-11-29T11:30:23.888Z,1.50
2018-11-29T11:31:30.756Z,2.00
2018-11-29T11:32:23.821Z,1.60
2018-11-29T11:33:23.797Z,2.30
2018-11-29T11:34:23.754Z,1.60
2018-11-29T11:35:23.737Z,1.50
2018-11-29T11:36:23.700Z,1.70
2018-11-29T11:37:23.668Z,2.00
2018-11-29T11:38:23.628Z,1.30
2018-11-29T11:39:23.638Z,1.30
2018-11-29T11:40:23.589Z,1.40
2018-11-29T11:41:23.551Z,1.80
2018-11-29T11:42:23.738Z,1.40
2018-11-29T11:43:23.493Z,1.40
2018-11-29T11:44:23.446Z,1.80
2018-11-29T11:45:23.420Z,1.50
2018-11-29T11:46:23.418Z,1.40
2018-11-29T11:47:23.389Z,1.70
2018-11-29T11:48:23.536Z,1.70
2018-11-29T11:49:23.324Z,1.80
2018-11-29T11:50:23.342Z,1.50
2018-11-29T11:51:23.284Z,1.70
2018-11-29T11:52:23.212Z,1.20
2018-11-29T11:53:23.211Z,1.30
2018-11-29T11:54:23.169Z,1.60
2018-11-29T11:55:29.701Z,1.20
2018-11-29T11:56:23.121Z,1.30
2018-11-29T11:57:23.080Z,1.40
2018-11-29T11:58:23.045Z,1.40
2018-11-29T11:59:23.005Z,1.50
2018-11-29T12:00:22.988Z,1.60
2018-11-29T12:01:22.955Z,1.20
2018-11-29T12:02:27.398Z,1.40
2018-11-29T12:03:22.914Z,1.50
2018-11-29T12:04:22.878Z,1.60
2018-11-29T12:05:22.845Z,1.60
2018-11-29T12:06:22.803Z,1.40
2018-11-29T12:07:22.838Z,1.50
2018-11-29T12:08:22.747Z,1.70
2018-11-29T12:09:22.703Z,1.20
2018-11-29T12:10:22.677Z,1.30
2018-11-29T12:11:22.663Z,1.80
2018-11-29T12:12:22.639Z,1.30
2018-11-29T12:13:22.607Z,1.40
2018-11-29T12:14:22.591Z,1.40
2018-11-29T12:15:22.554Z,1.40
2018-11-29T12:16:22.536Z,1.20
2018-11-29T12:17:22.474Z,1.60
2018-11-29T12:18:22.447Z,1.20
2018-11-29T12:19:22.422Z,1.00
2018-11-29T12:20:22.598Z,1.30
2018-11-29T12:21:22.368Z,1.50
2018-11-29T12:22:22.328Z,1.20
2018-11-29T12:23:22.304Z,1.30
2018-11-29T12:24:22.329Z,1.20
2018-11-29T12:25:22.244Z,1.40
2018-11-29T12:26:22.205Z,1.40
2018-11-29T12:27:22.197Z,1.40
2018-11-29T12:28:22.168Z,1.30
2018-11-29T12:29:22.127Z,1.20
2018-11-29T12:30:22.105Z,1.40
2018-11-29T12:31:22.065Z,1.50
2018-11-29T12:32:22.028Z,1.50
2018-11-29T12:33:21.995Z,1.30
2018-11-29T12:34:21.970Z,1.10
2018-11-29T12:35:21.955Z,1.00
2018-11-29T12:36:21.961Z,1.10
2018-11-29T12:37:21.886Z,0.90
2018-11-29T12:38:21.860Z,1.30
2018-11-29T12:39:21.872Z,1.20
2018-11-29T12:40:21.798Z,1.50
2018-11-29T12:41:21.763Z,1.20
2018-11-29T12:42:21.741Z,1.20
2018-11-29T12:43:21.735Z,1.30
2018-11-29T12:44:21.687Z,1.40
2018-11-29T12:45:21.657Z,1.00
2018-11-29T12:46:21.654Z,1.50
2018-11-29T12:47:21.616Z,1.50
2018-11-29T12:48:21.564Z,1.30
2018-11-29T12:49:21.543Z,1.50
2018-11-29T12:50:21.553Z,1.20
2018-11-29T12:51:21.481Z,1.10
2018-11-29T12:52:21.701Z,1.30
2018-11-29T12:53:21.408Z,1.30
2018-11-29T12:54:21.389Z,1.40
2018-11-29T12:55:21.374Z,1.00
2018-11-29T12:56:21.334Z,1.10
2018-11-29T12:57:21.302Z,1.30
2018-11-29T12:58:21.618Z,1.10
2018-11-29T12:59:21.236Z,1.10
2018-11-29T13:00:21.216Z,1.40
2018-11-29T13:01:21.214Z,1.20
2018-11-29T13:02:21.160Z,1.40
2018-11-29T13:03:21.146Z,1.30
2018-11-29T13:04:21.170Z,1.20
2018-11-29T13:05:21.093Z,1.30
2018-11-29T13:06:21.056Z,1.20
2018-11-29T13:07:21.002Z,1.30
2018-11-29T13:08:20.978Z,1.40
2018-11-29T13:09:20.940Z,1.30
2018-11-29T13:10:20.921Z,1.20
2018-11-29T13:11:20.883Z,1.10
2018-11-29T13:12:20.880Z,1.20
2018-11-29T13:13:20.829Z,1.10
2018-11-29T13:14:20.881Z,1.10
2018-11-29T13:16:20.748Z,0.90
2018-11-29T13:17:20.710Z,1.00
2018-11-29T13:18:20.689Z,1.40
2018-11-29T13:19:20.660Z,1.40
2018-11-29T13:20:20.620Z,1.20
2018-11-29T13:21:20.723Z,1.60
2018-11-29T13:22:20.565Z,1.30
2018-11-29T13:23:20.529Z,1.00